Sunapee, New Hampshire
Current Conditions -  °F | °C
As of 7:53 AM on Tuesday 21 Oct 2014 (Local Time) from KLEB Reporting Station
Overcast Overcast  
Wind Chill: 44°   Ceiling: 8000
Heat Index: 44°   Visibility: 9mi
Dew Point: 40°   Wind: 3mph
Humidity: 85%   Direction: 340°NNW
Pressure: 29.97"   Gusts: NA
Location:  43.39°N, 72.09°W
Report Text: KLEB 211153Z 34003KT 9SM OVC080 07/04 A2997 RMK AO2 SLP151 60000 T00670044 10072 20067 53002
Loading
Personal Weather Stations






























Interactive Weather Map
Tropical Storm Tracking
New forecast layout! Learn more

10-Day Weather Forecast

Advertisements
Track Severe Weather on mobile